Simpson Bay, Sint Maarten

6:16 PM AST on February 07, 2016 (GMT -0400)
Princess Juliana International | | Change Station
CLOSE
Current Station
Airport
Location: Juliana Airport,
Elevation: 13 ft
Nearby Weather Stations

Elev 13 ft 18.04 °N, 63.11 °W | Updated 16 minutes ago

Partly Cloudy
Partly Cloudy
81 °F
Feels Like 85 °F
N
13
Wind Variable Wind from SE

Today
High -- | Low -- °F
--% Chance of Precip.
Yesterday
High -- | Low -- °F
Precip. -- in
Pressure 30.01 in
Visibility 6.2 miles
Clouds Few 1900 ft
Heat Index 85 °F
Dew Point 72 °F
Humidity 74%
Rainfall 0.00 in
Snow Depth Not available.
6:43 AM 6:09 PM
Waning Crescent, 1% visible
METAR TNCM 072200Z 13011KT 090V150 9999 FEW019 27/22 Q1016 A3001 NOSIG RMK WDSPRD HZ
Pressure 30.01 in
Visibility 6.2 miles
Clouds Few 1900 ft
Heat Index 85 °F
Dew Point 72 °F
Humidity 74%
Rainfall 0.00 in
Snow Depth Not available.
6:43 AM 6:09 PM
Waning Crescent, 1% visible
METAR TNCM 072200Z 13011KT 090V150 9999 FEW019 27/22 Q1016 A3001 NOSIG RMK WDSPRD HZ

10-Day Weather Forecast

No radar image for this location.
×

Almanac

Astronomy

Feb. 07, 2016 Rise Set
Actual Time
Civil Twilight
Nautical Twilight
Astronomical Twilight
Moon
Length of Visible Light
Length of Day
Tomorrow will be .
, % of the Moon is Illuminated

Today's Extremes

Country Highs Country Lows

Community

WunderPhotos

Upload Photos

1,891,309 photos uploaded!

WunderBlog® & News

Nearby

Air Quality

  Air Quality AQ Index Pollutant
Not available.

Snow Depth

Station Depth Elevation

Earthquake Activity

City Distance Mag. Time & Date
Minimum magnitude displayed is 2.5.

Coastal Water Temperatures

Place Temperature

Stations

Nearby Weather Stations

Station Location Temp. Windchill Dew Point Humidity Wind Precip. Elev Updated Type